sensor_id;sensor_type;location;lat;lon;timestamp;temperature;humidity
4615;DHT22;2320;51.362;6.946;2023-03-14T00:01:10;12.00;99.90
4615;DHT22;2320;51.362;6.946;2023-03-14T00:03:36;12.00;99.90
4615;DHT22;2320;51.362;6.946;2023-03-14T00:06:02;12.00;99.90
4615;DHT22;2320;51.362;6.946;2023-03-14T00:08:28;11.90;99.90
4615;DHT22;2320;51.362;6.946;2023-03-14T00:10:53;11.90;99.90
4615;DHT22;2320;51.362;6.946;2023-03-14T00:13:19;11.90;99.90
4615;DHT22;2320;51.362;6.946;2023-03-14T00:15:44;11.90;99.90
4615;DHT22;2320;51.362;6.946;2023-03-14T00:18:10;11.90;99.90
4615;DHT22;2320;51.362;6.946;2023-03-14T00:20:35;12.00;99.90
4615;DHT22;2320;51.362;6.946;2023-03-14T00:23:01;12.00;99.90
4615;DHT22;2320;51.362;6.946;2023-03-14T00:25:27;12.00;99.90
4615;DHT22;2320;51.362;6.946;2023-03-14T00:27:53;11.90;99.90
4615;DHT22;2320;51.362;6.946;2023-03-14T00:30:18;11.90;99.90
4615;DHT22;2320;51.362;6.946;2023-03-14T00:32:44;12.00;99.90
4615;DHT22;2320;51.362;6.946;2023-03-14T00:35:09;12.00;99.90
4615;DHT22;2320;51.362;6.946;2023-03-14T00:37:35;12.10;99.90
4615;DHT22;2320;51.362;6.946;2023-03-14T00:40:01;12.20;99.90
4615;DHT22;2320;51.362;6.946;2023-03-14T00:42:26;12.20;99.90
4615;DHT22;2320;51.362;6.946;2023-03-14T00:44:52;12.20;99.90
4615;DHT22;2320;51.362;6.946;2023-03-14T00:47:18;12.00;99.90
4615;DHT22;2320;51.362;6.946;2023-03-14T00:49:43;11.80;99.90
4615;DHT22;2320;51.362;6.946;2023-03-14T00:52:09;11.40;99.90
4615;DHT22;2320;51.362;6.946;2023-03-14T00:54:34;11.00;99.90
4615;DHT22;2320;51.362;6.946;2023-03-14T00:57:00;10.80;99.90
4615;DHT22;2320;51.362;6.946;2023-03-14T00:59:25;10.70;99.90
4615;DHT22;2320;51.362;6.946;2023-03-14T01:01:51;10.50;99.90
4615;DHT22;2320;51.362;6.946;2023-03-14T01:04:16;10.40;99.90
4615;DHT22;2320;51.362;6.946;2023-03-14T01:06:42;10.30;99.90
4615;DHT22;2320;51.362;6.946;2023-03-14T01:09:07;10.30;99.90
4615;DHT22;2320;51.362;6.946;2023-03-14T01:11:34;10.30;99.90
4615;DHT22;2320;51.362;6.946;2023-03-14T01:14:00;10.30;99.90
4615;DHT22;2320;51.362;6.946;2023-03-14T01:16:26;10.30;99.90
4615;DHT22;2320;51.362;6.946;2023-03-14T01:18:52;10.30;99.90
4615;DHT22;2320;51.362;6.946;2023-03-14T01:21:19;10.30;99.90
4615;DHT22;2320;51.362;6.946;2023-03-14T01:23:45;10.20;99.90
4615;DHT22;2320;51.362;6.946;2023-03-14T01:26:12;10.30;99.90
4615;DHT22;2320;51.362;6.946;2023-03-14T01:28:37;10.30;99.90
4615;DHT22;2320;51.362;6.946;2023-03-14T01:31:07;10.20;99.90
4615;DHT22;2320;51.362;6.946;2023-03-14T01:33:32;10.20;99.90
4615;DHT22;2320;51.362;6.946;2023-03-14T01:35:58;10.20;99.90
4615;DHT22;2320;51.362;6.946;2023-03-14T01:38:24;10.20;99.90
4615;DHT22;2320;51.362;6.946;2023-03-14T01:40:49;10.20;99.90
4615;DHT22;2320;51.362;6.946;2023-03-14T01:43:16;10.10;99.90
4615;DHT22;2320;51.362;6.946;2023-03-14T01:48:27;10.10;99.90
4615;DHT22;2320;51.362;6.946;2023-03-14T01:50:53;10.20;99.90
4615;DHT22;2320;51.362;6.946;2023-03-14T01:53:19;10.20;99.90
4615;DHT22;2320;51.362;6.946;2023-03-14T01:55:47;10.20;99.90
4615;DHT22;2320;51.362;6.946;2023-03-14T01:58:13;10.20;99.90
4615;DHT22;2320;51.362;6.946;2023-03-14T02:00:39;10.10;99.90
4615;DHT22;2320;51.362;6.946;2023-03-14T02:03:06;10.10;99.90
4615;DHT22;2320;51.362;6.946;2023-03-14T02:05:36;10.10;99.90
4615;DHT22;2320;51.362;6.946;2023-03-14T02:08:04;10.10;99.90
4615;DHT22;2320;51.362;6.946;2023-03-14T02:10:31;10.10;99.90
4615;DHT22;2320;51.362;6.946;2023-03-14T02:12:57;10.00;99.90
4615;DHT22;2320;51.362;6.946;2023-03-14T02:15:24;10.10;99.90
4615;DHT22;2320;51.362;6.946;2023-03-14T02:17:50;10.10;99.90
4615;DHT22;2320;51.362;6.946;2023-03-14T02:23:00;10.20;99.90
4615;DHT22;2320;51.362;6.946;2023-03-14T02:27:51;10.20;99.90
4615;DHT22;2320;51.362;6.946;2023-03-14T02:30:19;10.20;99.90
4615;DHT22;2320;51.362;6.946;2023-03-14T02:32:46;10.30;99.90
4615;DHT22;2320;51.362;6.946;2023-03-14T02:35:13;10.40;99.90
4615;DHT22;2320;51.362;6.946;2023-03-14T02:37:43;10.40;99.90
4615;DHT22;2320;51.362;6.946;2023-03-14T02:40:11;10.30;99.90
4615;DHT22;2320;51.362;6.946;2023-03-14T02:42:36;10.40;99.90
4615;DHT22;2320;51.362;6.946;2023-03-14T02:47:33;10.40;99.90
4615;DHT22;2320;51.362;6.946;2023-03-14T02:50:04;10.40;99.90
4615;DHT22;2320;51.362;6.946;2023-03-14T02:52:30;10.40;99.90
4615;DHT22;2320;51.362;6.946;2023-03-14T02:54:55;10.40;99.90
4615;DHT22;2320;51.362;6.946;2023-03-14T02:57:21;10.40;99.90
4615;DHT22;2320;51.362;6.946;2023-03-14T02:59:46;10.50;99.90
4615;DHT22;2320;51.362;6.946;2023-03-14T03:02:12;10.50;99.90
4615;DHT22;2320;51.362;6.946;2023-03-14T03:04:37;10.40;99.90
4615;DHT22;2320;51.362;6.946;2023-03-14T03:07:03;10.50;99.90
4615;DHT22;2320;51.362;6.946;2023-03-14T03:09:28;10.50;99.90
4615;DHT22;2320;51.362;6.946;2023-03-14T03:11:54;10.50;99.90
4615;DHT22;2320;51.362;6.946;2023-03-14T03:14:19;10.50;99.90
4615;DHT22;2320;51.362;6.946;2023-03-14T03:16:45;10.50;99.90
4615;DHT22;2320;51.362;6.946;2023-03-14T03:19:10;10.50;99.90
4615;DHT22;2320;51.362;6.946;2023-03-14T03:21:36;10.50;99.90
4615;DHT22;2320;51.362;6.946;2023-03-14T03:24:01;10.50;99.90
4615;DHT22;2320;51.362;6.946;2023-03-14T03:26:27;10.50;99.90
4615;DHT22;2320;51.362;6.946;2023-03-14T03:28:52;10.50;99.90
4615;DHT22;2320;51.362;6.946;2023-03-14T03:31:18;10.50;99.90
4615;DHT22;2320;51.362;6.946;2023-03-14T03:33:43;10.50;99.90
4615;DHT22;2320;51.362;6.946;2023-03-14T03:36:09;10.50;99.90
4615;DHT22;2320;51.362;6.946;2023-03-14T03:38:35;10.50;99.90
4615;DHT22;2320;51.362;6.946;2023-03-14T03:41:07;10.50;99.90
4615;DHT22;2320;51.362;6.946;2023-03-14T03:43:32;10.50;99.90
4615;DHT22;2320;51.362;6.946;2023-03-14T03:45:59;10.40;99.90
4615;DHT22;2320;51.362;6.946;2023-03-14T03:48:27;10.40;99.90
4615;DHT22;2320;51.362;6.946;2023-03-14T03:50:52;10.40;99.90
4615;DHT22;2320;51.362;6.946;2023-03-14T03:53:18;10.40;99.90
4615;DHT22;2320;51.362;6.946;2023-03-14T03:55:43;10.30;99.90
4615;DHT22;2320;51.362;6.946;2023-03-14T03:58:09;10.20;99.90
4615;DHT22;2320;51.362;6.946;2023-03-14T04:00:34;10.30;99.90
4615;DHT22;2320;51.362;6.946;2023-03-14T04:03:00;10.20;99.90
4615;DHT22;2320;51.362;6.946;2023-03-14T04:05:26;10.20;99.90
4615;DHT22;2320;51.362;6.946;2023-03-14T04:07:51;10.10;99.90
4615;DHT22;2320;51.362;6.946;2023-03-14T04:10:17;10.10;99.90
4615;DHT22;2320;51.362;6.946;2023-03-14T04:12:42;10.10;99.90
4615;DHT22;2320;51.362;6.946;2023-03-14T04:15:08;10.00;99.90
4615;DHT22;2320;51.362;6.946;2023-03-14T04:17:34;9.90;99.90
4615;DHT22;2320;51.362;6.946;2023-03-14T04:19:59;9.90;99.90
4615;DHT22;2320;51.362;6.946;2023-03-14T04:22:25;9.90;99.90
4615;DHT22;2320;51.362;6.946;2023-03-14T04:24:50;9.90;99.90
4615;DHT22;2320;51.362;6.946;2023-03-14T04:27:16;10.00;99.90
4615;DHT22;2320;51.362;6.946;2023-03-14T04:29:42;10.00;99.90
4615;DHT22;2320;51.362;6.946;2023-03-14T04:32:07;10.00;99.90
4615;DHT22;2320;51.362;6.946;2023-03-14T04:34:33;10.00;99.90
4615;DHT22;2320;51.362;6.946;2023-03-14T04:36:58;10.10;99.90
4615;DHT22;2320;51.362;6.946;2023-03-14T04:39:24;10.20;99.90
4615;DHT22;2320;51.362;6.946;2023-03-14T04:41:49;10.00;99.90
4615;DHT22;2320;51.362;6.946;2023-03-14T04:44:15;9.90;99.90
4615;DHT22;2320;51.362;6.946;2023-03-14T04:46:40;9.70;99.90
4615;DHT22;2320;51.362;6.946;2023-03-14T04:49:06;9.70;99.90
4615;DHT22;2320;51.362;6.946;2023-03-14T04:51:31;9.60;99.90
4615;DHT22;2320;51.362;6.946;2023-03-14T04:53:57;9.60;99.90
4615;DHT22;2320;51.362;6.946;2023-03-14T04:56:22;9.70;99.90
4615;DHT22;2320;51.362;6.946;2023-03-14T04:58:48;9.70;99.90
4615;DHT22;2320;51.362;6.946;2023-03-14T05:01:13;9.60;99.90
4615;DHT22;2320;51.362;6.946;2023-03-14T05:03:39;9.50;99.90
4615;DHT22;2320;51.362;6.946;2023-03-14T05:06:04;9.50;99.90
4615;DHT22;2320;51.362;6.946;2023-03-14T05:08:30;9.60;99.90
4615;DHT22;2320;51.362;6.946;2023-03-14T05:10:56;9.60;99.90
4615;DHT22;2320;51.362;6.946;2023-03-14T05:13:22;9.60;99.90
4615;DHT22;2320;51.362;6.946;2023-03-14T05:15:48;9.50;99.90
4615;DHT22;2320;51.362;6.946;2023-03-14T05:18:15;9.60;99.90
4615;DHT22;2320;51.362;6.946;2023-03-14T05:20:41;9.60;99.90
4615;DHT22;2320;51.362;6.946;2023-03-14T05:23:08;9.70;99.90
4615;DHT22;2320;51.362;6.946;2023-03-14T05:25:34;9.60;99.90
4615;DHT22;2320;51.362;6.946;2023-03-14T05:27:59;9.70;99.90
4615;DHT22;2320;51.362;6.946;2023-03-14T05:30:25;9.70;99.90
4615;DHT22;2320;51.362;6.946;2023-03-14T05:32:50;9.80;99.90
4615;DHT22;2320;51.362;6.946;2023-03-14T05:35:16;9.80;99.90
4615;DHT22;2320;51.362;6.946;2023-03-14T05:37:42;9.90;99.90
4615;DHT22;2320;51.362;6.946;2023-03-14T05:40:07;9.90;99.90
4615;DHT22;2320;51.362;6.946;2023-03-14T05:42:34;10.00;99.90
4615;DHT22;2320;51.362;6.946;2023-03-14T05:44:59;10.00;99.90
4615;DHT22;2320;51.362;6.946;2023-03-14T05:47:25;10.00;99.90
4615;DHT22;2320;51.362;6.946;2023-03-14T05:49:50;9.90;99.90
4615;DHT22;2320;51.362;6.946;2023-03-14T05:52:16;9.90;99.90
4615;DHT22;2320;51.362;6.946;2023-03-14T05:54:41;10.00;99.90
4615;DHT22;2320;51.362;6.946;2023-03-14T05:57:07;10.10;99.90
4615;DHT22;2320;51.362;6.946;2023-03-14T05:59:32;10.00;99.90
4615;DHT22;2320;51.362;6.946;2023-03-14T06:01:58;10.10;99.90
4615;DHT22;2320;51.362;6.946;2023-03-14T06:04:23;10.10;99.90
4615;DHT22;2320;51.362;6.946;2023-03-14T06:06:49;10.20;99.90
4615;DHT22;2320;51.362;6.946;2023-03-14T06:09:15;10.10;99.90
4615;DHT22;2320;51.362;6.946;2023-03-14T06:11:40;10.10;99.90
4615;DHT22;2320;51.362;6.946;2023-03-14T06:14:06;10.10;99.90
4615;DHT22;2320;51.362;6.946;2023-03-14T06:16:32;10.10;99.90
4615;DHT22;2320;51.362;6.946;2023-03-14T06:18:57;10.10;99.90
4615;DHT22;2320;51.362;6.946;2023-03-14T06:21:23;10.00;99.90
4615;DHT22;2320;51.362;6.946;2023-03-14T06:23:48;10.10;99.90
4615;DHT22;2320;51.362;6.946;2023-03-14T06:26:14;10.00;99.90
4615;DHT22;2320;51.362;6.946;2023-03-14T06:28:39;10.10;99.90
4615;DHT22;2320;51.362;6.946;2023-03-14T06:31:05;10.10;99.90
4615;DHT22;2320;51.362;6.946;2023-03-14T06:33:31;10.10;99.90
4615;DHT22;2320;51.362;6.946;2023-03-14T06:35:56;10.10;99.90
4615;DHT22;2320;51.362;6.946;2023-03-14T06:38:22;10.10;99.90
4615;DHT22;2320;51.362;6.946;2023-03-14T06:40:47;10.10;99.90
4615;DHT22;2320;51.362;6.946;2023-03-14T06:43:13;10.00;99.90
4615;DHT22;2320;51.362;6.946;2023-03-14T06:45:38;10.10;99.90
4615;DHT22;2320;51.362;6.946;2023-03-14T06:48:04;10.10;99.90
4615;DHT22;2320;51.362;6.946;2023-03-14T06:50:29;10.10;99.90
4615;DHT22;2320;51.362;6.946;2023-03-14T06:52:55;10.20;99.90
4615;DHT22;2320;51.362;6.946;2023-03-14T06:55:22;10.20;99.90
4615;DHT22;2320;51.362;6.946;2023-03-14T06:57:48;10.20;99.90
4615;DHT22;2320;51.362;6.946;2023-03-14T07:00:13;10.30;99.90
4615;DHT22;2320;51.362;6.946;2023-03-14T07:02:39;10.40;99.90
4615;DHT22;2320;51.362;6.946;2023-03-14T07:05:05;10.40;99.90
4615;DHT22;2320;51.362;6.946;2023-03-14T07:07:31;10.40;99.90
4615;DHT22;2320;51.362;6.946;2023-03-14T07:09:56;10.40;99.90
4615;DHT22;2320;51.362;6.946;2023-03-14T07:12:22;10.40;99.90
4615;DHT22;2320;51.362;6.946;2023-03-14T07:14:47;10.50;99.90
4615;DHT22;2320;51.362;6.946;2023-03-14T07:17:13;10.50;99.90
4615;DHT22;2320;51.362;6.946;2023-03-14T07:19:38;10.50;99.90
4615;DHT22;2320;51.362;6.946;2023-03-14T07:22:04;10.50;99.90
4615;DHT22;2320;51.362;6.946;2023-03-14T07:24:30;10.50;99.90
4615;DHT22;2320;51.362;6.946;2023-03-14T07:26:56;10.60;99.90
4615;DHT22;2320;51.362;6.946;2023-03-14T07:29:21;10.50;99.90
4615;DHT22;2320;51.362;6.946;2023-03-14T07:31:46;10.60;99.90
4615;DHT22;2320;51.362;6.946;2023-03-14T07:34:12;10.60;99.90
4615;DHT22;2320;51.362;6.946;2023-03-14T07:36:38;10.70;99.90
4615;DHT22;2320;51.362;6.946;2023-03-14T07:39:03;10.70;99.90
4615;DHT22;2320;51.362;6.946;2023-03-14T07:41:29;10.70;99.90
4615;DHT22;2320;51.362;6.946;2023-03-14T07:43:55;10.70;99.90
4615;DHT22;2320;51.362;6.946;2023-03-14T07:46:20;10.80;99.90
4615;DHT22;2320;51.362;6.946;2023-03-14T07:48:46;10.90;99.90
4615;DHT22;2320;51.362;6.946;2023-03-14T07:51:12;11.00;99.90
4615;DHT22;2320;51.362;6.946;2023-03-14T07:53:37;11.00;99.90
4615;DHT22;2320;51.362;6.946;2023-03-14T07:56:03;11.00;99.90
4615;DHT22;2320;51.362;6.946;2023-03-14T07:58:29;11.00;99.90
4615;DHT22;2320;51.362;6.946;2023-03-14T08:00:54;10.90;99.90
4615;DHT22;2320;51.362;6.946;2023-03-14T08:03:20;10.90;99.90
4615;DHT22;2320;51.362;6.946;2023-03-14T08:05:48;11.00;99.90
4615;DHT22;2320;51.362;6.946;2023-03-14T08:08:14;11.00;99.90
4615;DHT22;2320;51.362;6.946;2023-03-14T08:10:40;11.10;99.90
4615;DHT22;2320;51.362;6.946;2023-03-14T08:13:05;11.30;99.90
4615;DHT22;2320;51.362;6.946;2023-03-14T08:15:31;11.20;99.90
4615;DHT22;2320;51.362;6.946;2023-03-14T08:17:57;11.30;99.90
4615;DHT22;2320;51.362;6.946;2023-03-14T08:20:24;11.30;99.90
4615;DHT22;2320;51.362;6.946;2023-03-14T08:22:49;11.30;99.90
4615;DHT22;2320;51.362;6.946;2023-03-14T08:25:15;11.40;99.90
4615;DHT22;2320;51.362;6.946;2023-03-14T08:27:41;11.40;99.90
4615;DHT22;2320;51.362;6.946;2023-03-14T08:30:08;11.30;99.90
4615;DHT22;2320;51.362;6.946;2023-03-14T08:32:34;11.30;99.90
4615;DHT22;2320;51.362;6.946;2023-03-14T08:35:00;11.40;99.90
4615;DHT22;2320;51.362;6.946;2023-03-14T08:37:25;11.50;99.90
4615;DHT22;2320;51.362;6.946;2023-03-14T08:39:51;11.60;99.90
4615;DHT22;2320;51.362;6.946;2023-03-14T08:42:17;11.60;99.90
4615;DHT22;2320;51.362;6.946;2023-03-14T08:44:43;11.70;99.90
4615;DHT22;2320;51.362;6.946;2023-03-14T08:47:08;11.80;99.90
4615;DHT22;2320;51.362;6.946;2023-03-14T08:49:34;11.80;99.90
4615;DHT22;2320;51.362;6.946;2023-03-14T08:52:01;11.80;99.90
4615;DHT22;2320;51.362;6.946;2023-03-14T08:54:26;11.80;99.90
4615;DHT22;2320;51.362;6.946;2023-03-14T08:56:52;11.90;99.90
4615;DHT22;2320;51.362;6.946;2023-03-14T08:59:17;11.80;99.90
4615;DHT22;2320;51.362;6.946;2023-03-14T09:01:43;11.80;99.90
4615;DHT22;2320;51.362;6.946;2023-03-14T09:04:08;11.80;99.90
4615;DHT22;2320;51.362;6.946;2023-03-14T09:06:35;11.70;99.90
4615;DHT22;2320;51.362;6.946;2023-03-14T09:09:01;11.70;99.90
4615;DHT22;2320;51.362;6.946;2023-03-14T09:11:26;11.70;99.90
4615;DHT22;2320;51.362;6.946;2023-03-14T09:13:52;11.80;99.90
4615;DHT22;2320;51.362;6.946;2023-03-14T09:16:17;11.80;99.90
4615;DHT22;2320;51.362;6.946;2023-03-14T09:18:43;11.80;99.90
4615;DHT22;2320;51.362;6.946;2023-03-14T09:21:08;11.80;99.90
4615;DHT22;2320;51.362;6.946;2023-03-14T09:23:34;11.80;99.90
4615;DHT22;2320;51.362;6.946;2023-03-14T09:25:59;11.80;99.90
4615;DHT22;2320;51.362;6.946;2023-03-14T09:28:25;11.70;99.90
4615;DHT22;2320;51.362;6.946;2023-03-14T09:30:51;11.60;99.90
4615;DHT22;2320;51.362;6.946;2023-03-14T09:33:16;11.30;99.90
4615;DHT22;2320;51.362;6.946;2023-03-14T09:35:42;10.80;99.90
4615;DHT22;2320;51.362;6.946;2023-03-14T09:38:08;10.60;99.90
4615;DHT22;2320;51.362;6.946;2023-03-14T09:40:34;10.30;99.90
4615;DHT22;2320;51.362;6.946;2023-03-14T09:43:00;10.20;99.90
4615;DHT22;2320;51.362;6.946;2023-03-14T09:47:51;9.90;99.90
4615;DHT22;2320;51.362;6.946;2023-03-14T09:50:17;9.70;99.90
4615;DHT22;2320;51.362;6.946;2023-03-14T09:52:45;9.70;99.90
4615;DHT22;2320;51.362;6.946;2023-03-14T09:55:12;9.60;99.90
4615;DHT22;2320;51.362;6.946;2023-03-14T09:57:39;9.60;99.90
4615;DHT22;2320;51.362;6.946;2023-03-14T10:02:40;9.80;99.90
4615;DHT22;2320;51.362;6.946;2023-03-14T10:05:17;9.80;99.90
4615;DHT22;2320;51.362;6.946;2023-03-14T10:07:42;9.80;99.90
4615;DHT22;2320;51.362;6.946;2023-03-14T10:10:29;9.80;99.90
4615;DHT22;2320;51.362;6.946;2023-03-14T10:12:55;9.80;99.90
4615;DHT22;2320;51.362;6.946;2023-03-14T10:15:26;9.60;99.90
4615;DHT22;2320;51.362;6.946;2023-03-14T10:17:52;9.50;99.90
4615;DHT22;2320;51.362;6.946;2023-03-14T10:20:34;9.50;99.90
4615;DHT22;2320;51.362;6.946;2023-03-14T10:23:00;9.40;99.90
4615;DHT22;2320;51.362;6.946;2023-03-14T10:25:28;9.30;99.90
4615;DHT22;2320;51.362;6.946;2023-03-14T10:27:54;9.30;99.90
4615;DHT22;2320;51.362;6.946;2023-03-14T10:31:05;9.30;99.90
4615;DHT22;2320;51.362;6.946;2023-03-14T10:33:31;9.40;99.90
4615;DHT22;2320;51.362;6.946;2023-03-14T10:38:24;9.60;99.90
4615;DHT22;2320;51.362;6.946;2023-03-14T10:40:51;9.60;99.90
4615;DHT22;2320;51.362;6.946;2023-03-14T10:43:19;9.70;99.90
4615;DHT22;2320;51.362;6.946;2023-03-14T10:45:54;9.70;99.90
4615;DHT22;2320;51.362;6.946;2023-03-14T10:51:10;9.50;99.90
4615;DHT22;2320;51.362;6.946;2023-03-14T10:53:44;9.30;99.90
4615;DHT22;2320;51.362;6.946;2023-03-14T10:56:20;9.20;99.90
4615;DHT22;2320;51.362;6.946;2023-03-14T10:58:53;8.90;99.90
4615;DHT22;2320;51.362;6.946;2023-03-14T11:03:51;8.70;99.90
4615;DHT22;2320;51.362;6.946;2023-03-14T11:06:23;8.50;99.90
4615;DHT22;2320;51.362;6.946;2023-03-14T11:09:10;8.40;99.90
4615;DHT22;2320;51.362;6.946;2023-03-14T11:11:37;8.50;99.90
4615;DHT22;2320;51.362;6.946;2023-03-14T11:14:07;8.40;99.90
4615;DHT22;2320;51.362;6.946;2023-03-14T11:16:40;8.40;99.90
4615;DHT22;2320;51.362;6.946;2023-03-14T11:19:17;8.50;99.90
4615;DHT22;2320;51.362;6.946;2023-03-14T11:24:29;8.60;99.90
4615;DHT22;2320;51.362;6.946;2023-03-14T11:29:37;8.90;99.90
4615;DHT22;2320;51.362;6.946;2023-03-14T11:32:10;8.70;99.90
4615;DHT22;2320;51.362;6.946;2023-03-14T11:37:14;8.40;99.90
4615;DHT22;2320;51.362;6.946;2023-03-14T11:39:44;8.40;99.90
4615;DHT22;2320;51.362;6.946;2023-03-14T11:42:16;8.50;99.90
4615;DHT22;2320;51.362;6.946;2023-03-14T11:44:43;8.60;99.90
4615;DHT22;2320;51.362;6.946;2023-03-14T11:47:25;8.90;99.90
4615;DHT22;2320;51.362;6.946;2023-03-14T11:52:34;9.00;99.90
4615;DHT22;2320;51.362;6.946;2023-03-14T11:55:17;9.00;99.90
4615;DHT22;2320;51.362;6.946;2023-03-14T11:57:42;9.00;99.90
4615;DHT22;2320;51.362;6.946;2023-03-14T12:00:17;8.90;99.90
4615;DHT22;2320;51.362;6.946;2023-03-14T12:05:45;8.40;99.90
4615;DHT22;2320;51.362;6.946;2023-03-14T12:13:13;8.50;99.90
4615;DHT22;2320;51.362;6.946;2023-03-14T12:15:47;8.50;99.90
4615;DHT22;2320;51.362;6.946;2023-03-14T12:18:18;8.50;99.90
4615;DHT22;2320;51.362;6.946;2023-03-14T12:20:50;8.40;99.90
4615;DHT22;2320;51.362;6.946;2023-03-14T12:23:16;8.60;99.90
4615;DHT22;2320;51.362;6.946;2023-03-14T12:25:42;8.70;99.90
4615;DHT22;2320;51.362;6.946;2023-03-14T12:35:36;9.40;99.90
4615;DHT22;2320;51.362;6.946;2023-03-14T12:38:03;9.60;99.90
4615;DHT22;2320;51.362;6.946;2023-03-14T12:40:33;9.90;99.90
4615;DHT22;2320;51.362;6.946;2023-03-14T12:43:01;10.10;99.90
4615;DHT22;2320;51.362;6.946;2023-03-14T12:45:32;10.20;99.90
4615;DHT22;2320;51.362;6.946;2023-03-14T12:50:43;9.80;99.90
4615;DHT22;2320;51.362;6.946;2023-03-14T12:53:27;9.80;99.90
4615;DHT22;2320;51.362;6.946;2023-03-14T13:01:26;8.80;99.90
4615;DHT22;2320;51.362;6.946;2023-03-14T13:03:53;8.50;99.90
4615;DHT22;2320;51.362;6.946;2023-03-14T13:11:48;8.30;99.90
4615;DHT22;2320;51.362;6.946;2023-03-14T13:14:14;8.10;99.90
4615;DHT22;2320;51.362;6.946;2023-03-14T13:16:39;8.30;99.90
4615;DHT22;2320;51.362;6.946;2023-03-14T13:19:13;8.40;99.90
4615;DHT22;2320;51.362;6.946;2023-03-14T13:21:41;8.50;99.90
4615;DHT22;2320;51.362;6.946;2023-03-14T13:24:17;8.60;99.90
4615;DHT22;2320;51.362;6.946;2023-03-14T13:26:43;8.70;99.90
4615;DHT22;2320;51.362;6.946;2023-03-14T13:29:19;8.60;99.90
4615;DHT22;2320;51.362;6.946;2023-03-14T13:31:46;8.60;99.90
4615;DHT22;2320;51.362;6.946;2023-03-14T13:34:12;8.50;99.90
4615;DHT22;2320;51.362;6.946;2023-03-14T13:36:38;8.40;99.90
4615;DHT22;2320;51.362;6.946;2023-03-14T13:39:04;8.40;99.90
4615;DHT22;2320;51.362;6.946;2023-03-14T13:41:34;8.20;99.90
4615;DHT22;2320;51.362;6.946;2023-03-14T13:44:23;8.30;99.90
4615;DHT22;2320;51.362;6.946;2023-03-14T13:46:48;8.30;99.90
4615;DHT22;2320;51.362;6.946;2023-03-14T13:49:19;8.20;99.90
4615;DHT22;2320;51.362;6.946;2023-03-14T13:51:46;8.40;99.90
4615;DHT22;2320;51.362;6.946;2023-03-14T13:54:19;8.60;99.90
4615;DHT22;2320;51.362;6.946;2023-03-14T13:56:45;8.70;99.90
4615;DHT22;2320;51.362;6.946;2023-03-14T14:02:15;9.10;99.90
4615;DHT22;2320;51.362;6.946;2023-03-14T14:04:40;9.30;99.90
4615;DHT22;2320;51.362;6.946;2023-03-14T14:07:24;9.30;99.90
4615;DHT22;2320;51.362;6.946;2023-03-14T14:09:50;9.20;99.90
4615;DHT22;2320;51.362;6.946;2023-03-14T14:14:48;8.90;99.90
4615;DHT22;2320;51.362;6.946;2023-03-14T14:17:15;9.00;99.90
4615;DHT22;2320;51.362;6.946;2023-03-14T14:19:43;9.00;99.90
4615;DHT22;2320;51.362;6.946;2023-03-14T14:22:09;9.20;99.90
4615;DHT22;2320;51.362;6.946;2023-03-14T14:24:36;9.40;99.90
4615;DHT22;2320;51.362;6.946;2023-03-14T14:27:08;9.50;99.90
4615;DHT22;2320;51.362;6.946;2023-03-14T14:29:33;9.60;99.90
4615;DHT22;2320;51.362;6.946;2023-03-14T14:32:03;9.60;99.90
4615;DHT22;2320;51.362;6.946;2023-03-14T14:34:29;9.70;99.90
4615;DHT22;2320;51.362;6.946;2023-03-14T14:37:02;9.60;99.90
4615;DHT22;2320;51.362;6.946;2023-03-14T14:39:28;9.70;99.90
4615;DHT22;2320;51.362;6.946;2023-03-14T14:41:55;9.60;99.90
4615;DHT22;2320;51.362;6.946;2023-03-14T14:44:27;9.40;99.90
4615;DHT22;2320;51.362;6.946;2023-03-14T14:46:54;9.20;99.90
4615;DHT22;2320;51.362;6.946;2023-03-14T14:49:20;9.00;99.90
4615;DHT22;2320;51.362;6.946;2023-03-14T14:51:49;8.80;99.90
4615;DHT22;2320;51.362;6.946;2023-03-14T14:54:16;8.70;99.90
4615;DHT22;2320;51.362;6.946;2023-03-14T14:56:46;8.70;99.90
4615;DHT22;2320;51.362;6.946;2023-03-14T14:59:25;8.60;99.90
4615;DHT22;2320;51.362;6.946;2023-03-14T15:01:56;8.50;99.90
4615;DHT22;2320;51.362;6.946;2023-03-14T15:04:22;8.50;99.90
4615;DHT22;2320;51.362;6.946;2023-03-14T15:06:48;8.60;99.90
4615;DHT22;2320;51.362;6.946;2023-03-14T15:09:15;8.60;99.90
4615;DHT22;2320;51.362;6.946;2023-03-14T15:11:42;8.60;99.90
4615;DHT22;2320;51.362;6.946;2023-03-14T15:14:08;8.50;99.90
4615;DHT22;2320;51.362;6.946;2023-03-14T15:16:33;8.50;99.90
4615;DHT22;2320;51.362;6.946;2023-03-14T15:19:00;8.60;99.90
4615;DHT22;2320;51.362;6.946;2023-03-14T15:21:26;8.50;99.90
4615;DHT22;2320;51.362;6.946;2023-03-14T15:23:52;8.70;99.90
4615;DHT22;2320;51.362;6.946;2023-03-14T15:26:19;8.70;99.90
4615;DHT22;2320;51.362;6.946;2023-03-14T15:28:45;8.70;99.90
4615;DHT22;2320;51.362;6.946;2023-03-14T15:31:11;8.60;99.90
4615;DHT22;2320;51.362;6.946;2023-03-14T15:33:37;8.60;99.90
4615;DHT22;2320;51.362;6.946;2023-03-14T15:36:03;8.60;99.90
4615;DHT22;2320;51.362;6.946;2023-03-14T15:38:29;8.50;99.90
4615;DHT22;2320;51.362;6.946;2023-03-14T15:40:54;8.40;99.90
4615;DHT22;2320;51.362;6.946;2023-03-14T15:43:20;8.40;99.90
4615;DHT22;2320;51.362;6.946;2023-03-14T15:45:45;8.40;99.90
4615;DHT22;2320;51.362;6.946;2023-03-14T15:48:12;8.40;99.90
4615;DHT22;2320;51.362;6.946;2023-03-14T15:50:39;8.40;99.90
4615;DHT22;2320;51.362;6.946;2023-03-14T15:53:04;8.40;99.90
4615;DHT22;2320;51.362;6.946;2023-03-14T15:55:30;8.40;99.90
4615;DHT22;2320;51.362;6.946;2023-03-14T15:57:55;8.40;99.90
4615;DHT22;2320;51.362;6.946;2023-03-14T16:00:21;8.40;99.90
4615;DHT22;2320;51.362;6.946;2023-03-14T16:02:47;8.30;99.90
4615;DHT22;2320;51.362;6.946;2023-03-14T16:05:13;8.30;99.90
4615;DHT22;2320;51.362;6.946;2023-03-14T16:07:39;8.30;99.90
4615;DHT22;2320;51.362;6.946;2023-03-14T16:10:05;8.30;99.90
4615;DHT22;2320;51.362;6.946;2023-03-14T16:12:31;8.30;99.90
4615;DHT22;2320;51.362;6.946;2023-03-14T16:14:57;8.30;99.90
4615;DHT22;2320;51.362;6.946;2023-03-14T16:17:23;8.30;99.90
4615;DHT22;2320;51.362;6.946;2023-03-14T16:19:49;8.30;99.90
4615;DHT22;2320;51.362;6.946;2023-03-14T16:22:15;8.30;99.90
4615;DHT22;2320;51.362;6.946;2023-03-14T16:24:40;8.40;99.90
4615;DHT22;2320;51.362;6.946;2023-03-14T16:27:06;8.40;99.90
4615;DHT22;2320;51.362;6.946;2023-03-14T16:29:31;8.30;99.90
4615;DHT22;2320;51.362;6.946;2023-03-14T16:31:57;8.30;99.90
4615;DHT22;2320;51.362;6.946;2023-03-14T16:34:22;8.20;99.90
4615;DHT22;2320;51.362;6.946;2023-03-14T16:36:48;8.20;99.90
4615;DHT22;2320;51.362;6.946;2023-03-14T16:39:16;8.30;99.90
4615;DHT22;2320;51.362;6.946;2023-03-14T16:41:42;8.30;99.90
4615;DHT22;2320;51.362;6.946;2023-03-14T16:44:08;8.20;99.90
4615;DHT22;2320;51.362;6.946;2023-03-14T16:46:33;8.20;99.90
4615;DHT22;2320;51.362;6.946;2023-03-14T16:49:00;8.10;99.90
4615;DHT22;2320;51.362;6.946;2023-03-14T16:51:28;8.10;99.90
4615;DHT22;2320;51.362;6.946;2023-03-14T16:53:53;8.20;99.90
4615;DHT22;2320;51.362;6.946;2023-03-14T16:56:19;8.20;99.90
4615;DHT22;2320;51.362;6.946;2023-03-14T16:58:44;8.10;99.90
4615;DHT22;2320;51.362;6.946;2023-03-14T17:01:11;8.00;99.90
4615;DHT22;2320;51.362;6.946;2023-03-14T17:03:38;7.90;99.90
4615;DHT22;2320;51.362;6.946;2023-03-14T17:06:03;7.90;99.90
4615;DHT22;2320;51.362;6.946;2023-03-14T17:08:29;7.90;99.90
4615;DHT22;2320;51.362;6.946;2023-03-14T17:10:55;7.80;99.90
4615;DHT22;2320;51.362;6.946;2023-03-14T17:13:20;7.80;99.90
4615;DHT22;2320;51.362;6.946;2023-03-14T17:15:53;7.70;99.90